KMKO/MKO METAR and TAF weather

Enter ICAO airport designator
Station Type Date Time Source
KMKO METAR 2020/12/05 03:53 UTC NOAA

KMKO 050353Z AUTO 00000KT 10SM CLR 04/00 A3021 RMK AO2 SLP232 T00440000


Station Type Date Time Source
KMKO Decoded METAR 2020/12/05 03:53 UTC NOAA

MUSKOGEE DAVIS FIELD, OK, United States (KMKO) 35-39N 95-22W 185M
Dec 04, 2020 - 10:53 PM EST / 2020.12.05 0353 UTC
Wind: Calm:0
Visibility: 10 mile(s):0
Sky conditions: clear
Temperature: 39.9 F (4.4 C)
Dew Point: 32.0 F (0.0 C)
Relative Humidity: 73%
Pressure (altimeter): 30.21 in. Hg (1023 hPa)
ob: KMKO 050353Z AUTO 00000KT 10SM CLR 04/00 A3021 RMK AO2 SLP232 T00440000
cycle: 4

Station Type Date Time Source
KMKO TAF UTC NOAA

Error!

Example: see airport list